sensor_id;sensor_type;location;lat;lon;timestamp;P1;durP1;ratioP1;P2;durP2;ratioP2
25479;SDS011;13393;49.378;8.686;2023-03-01T00:01:59;15.85;;;9.85;;
25479;SDS011;13393;49.378;8.686;2023-03-01T00:04:26;14.43;;;9.85;;
25479;SDS011;13393;49.378;8.686;2023-03-01T00:06:53;16.05;;;10.77;;
25479;SDS011;13393;49.378;8.686;2023-03-01T00:09:19;15.60;;;9.98;;
25479;SDS011;13393;49.378;8.686;2023-03-01T00:11:46;15.75;;;10.18;;
25479;SDS011;13393;49.378;8.686;2023-03-01T00:14:12;17.65;;;10.88;;
25479;SDS011;13393;49.378;8.686;2023-03-01T00:16:40;14.20;;;10.18;;
25479;SDS011;13393;49.378;8.686;2023-03-01T00:19:08;13.63;;;10.10;;
25479;SDS011;13393;49.378;8.686;2023-03-01T00:21:35;15.73;;;10.52;;
25479;SDS011;13393;49.378;8.686;2023-03-01T00:24:02;14.55;;;10.43;;
25479;SDS011;13393;49.378;8.686;2023-03-01T00:26:28;17.55;;;11.20;;
25479;SDS011;13393;49.378;8.686;2023-03-01T00:28:56;15.73;;;11.15;;
25479;SDS011;13393;49.378;8.686;2023-03-01T00:31:23;15.77;;;11.05;;
25479;SDS011;13393;49.378;8.686;2023-03-01T00:33:53;17.08;;;11.20;;
25479;SDS011;13393;49.378;8.686;2023-03-01T00:36:22;15.55;;;10.35;;
25479;SDS011;13393;49.378;8.686;2023-03-01T00:38:48;16.15;;;10.60;;
25479;SDS011;13393;49.378;8.686;2023-03-01T00:41:15;15.90;;;10.35;;
25479;SDS011;13393;49.378;8.686;2023-03-01T00:43:42;15.05;;;10.77;;
25479;SDS011;13393;49.378;8.686;2023-03-01T00:46:09;15.35;;;11.00;;
25479;SDS011;13393;49.378;8.686;2023-03-01T00:48:35;15.63;;;11.70;;
25479;SDS011;13393;49.378;8.686;2023-03-01T00:51:06;19.25;;;11.95;;
25479;SDS011;13393;49.378;8.686;2023-03-01T00:53:33;17.42;;;11.43;;
25479;SDS011;13393;49.378;8.686;2023-03-01T00:56:00;16.33;;;11.55;;
25479;SDS011;13393;49.378;8.686;2023-03-01T00:58:26;14.80;;;10.85;;
25479;SDS011;13393;49.378;8.686;2023-03-01T01:00:52;15.98;;;11.52;;
25479;SDS011;13393;49.378;8.686;2023-03-01T01:03:19;17.77;;;11.32;;
25479;SDS011;13393;49.378;8.686;2023-03-01T01:05:45;17.10;;;11.27;;
25479;SDS011;13393;49.378;8.686;2023-03-01T01:08:13;17.33;;;11.55;;
25479;SDS011;13393;49.378;8.686;2023-03-01T01:10:39;18.52;;;11.68;;
25479;SDS011;13393;49.378;8.686;2023-03-01T01:13:05;17.38;;;11.55;;
25479;SDS011;13393;49.378;8.686;2023-03-01T01:15:33;18.23;;;12.52;;
25479;SDS011;13393;49.378;8.686;2023-03-01T01:17:59;17.50;;;12.02;;
25479;SDS011;13393;49.378;8.686;2023-03-01T01:20:26;16.00;;;11.82;;
25479;SDS011;13393;49.378;8.686;2023-03-01T01:22:52;19.88;;;12.88;;
25479;SDS011;13393;49.378;8.686;2023-03-01T01:25:20;19.70;;;11.65;;
25479;SDS011;13393;49.378;8.686;2023-03-01T01:27:46;19.23;;;12.85;;
25479;SDS011;13393;49.378;8.686;2023-03-01T01:30:13;19.55;;;13.15;;
25479;SDS011;13393;49.378;8.686;2023-03-01T01:32:39;20.73;;;12.48;;
25479;SDS011;13393;49.378;8.686;2023-03-01T01:35:06;20.50;;;12.50;;
25479;SDS011;13393;49.378;8.686;2023-03-01T01:37:32;18.55;;;12.80;;
25479;SDS011;13393;49.378;8.686;2023-03-01T01:39:59;17.20;;;12.15;;
25479;SDS011;13393;49.378;8.686;2023-03-01T01:42:38;20.13;;;12.85;;
25479;SDS011;13393;49.378;8.686;2023-03-01T01:45:24;18.35;;;13.30;;
25479;SDS011;13393;49.378;8.686;2023-03-01T01:47:51;20.63;;;13.25;;
25479;SDS011;13393;49.378;8.686;2023-03-01T01:50:18;19.40;;;13.43;;
25479;SDS011;13393;49.378;8.686;2023-03-01T01:52:45;19.77;;;13.68;;
25479;SDS011;13393;49.378;8.686;2023-03-01T01:55:14;20.30;;;13.40;;
25479;SDS011;13393;49.378;8.686;2023-03-01T01:57:44;19.73;;;12.90;;
25479;SDS011;13393;49.378;8.686;2023-03-01T02:00:12;19.42;;;13.02;;
25479;SDS011;13393;49.378;8.686;2023-03-01T02:02:39;20.48;;;13.77;;
25479;SDS011;13393;49.378;8.686;2023-03-01T02:05:06;20.58;;;12.98;;
25479;SDS011;13393;49.378;8.686;2023-03-01T02:07:36;25.33;;;13.23;;
25479;SDS011;13393;49.378;8.686;2023-03-01T02:10:05;24.98;;;13.52;;
25479;SDS011;13393;49.378;8.686;2023-03-01T02:12:31;19.48;;;13.88;;
25479;SDS011;13393;49.378;8.686;2023-03-01T02:14:59;18.00;;;12.52;;
25479;SDS011;13393;49.378;8.686;2023-03-01T02:17:26;22.40;;;13.88;;
25479;SDS011;13393;49.378;8.686;2023-03-01T02:19:56;23.33;;;13.45;;
25479;SDS011;13393;49.378;8.686;2023-03-01T02:22:24;22.27;;;13.68;;
25479;SDS011;13393;49.378;8.686;2023-03-01T02:24:55;19.20;;;13.95;;
25479;SDS011;13393;49.378;8.686;2023-03-01T02:27:26;21.90;;;13.50;;
25479;SDS011;13393;49.378;8.686;2023-03-01T02:29:59;22.08;;;14.32;;
25479;SDS011;13393;49.378;8.686;2023-03-01T02:32:25;23.52;;;13.73;;
25479;SDS011;13393;49.378;8.686;2023-03-01T02:34:52;22.65;;;13.45;;
25479;SDS011;13393;49.378;8.686;2023-03-01T02:37:18;24.30;;;14.48;;
25479;SDS011;13393;49.378;8.686;2023-03-01T02:39:49;20.23;;;13.13;;
25479;SDS011;13393;49.378;8.686;2023-03-01T02:42:18;21.75;;;13.85;;
25479;SDS011;13393;49.378;8.686;2023-03-01T02:44:48;17.67;;;12.80;;
25479;SDS011;13393;49.378;8.686;2023-03-01T02:47:16;17.10;;;13.20;;
25479;SDS011;13393;49.378;8.686;2023-03-01T02:50:00;20.65;;;13.32;;
25479;SDS011;13393;49.378;8.686;2023-03-01T02:52:29;22.00;;;14.20;;
25479;SDS011;13393;49.378;8.686;2023-03-01T02:54:59;19.70;;;13.93;;
25479;SDS011;13393;49.378;8.686;2023-03-01T02:57:27;25.70;;;13.60;;
25479;SDS011;13393;49.378;8.686;2023-03-01T03:00:34;19.00;;;13.18;;
25479;SDS011;13393;49.378;8.686;2023-03-01T03:02:49;21.38;;;13.88;;
25479;SDS011;13393;49.378;8.686;2023-03-01T03:05:16;22.40;;;13.30;;
25479;SDS011;13393;49.378;8.686;2023-03-01T03:07:47;23.17;;;14.48;;
25479;SDS011;13393;49.378;8.686;2023-03-01T03:10:14;22.38;;;14.02;;
25479;SDS011;13393;49.378;8.686;2023-03-01T03:12:41;19.63;;;13.88;;
25479;SDS011;13393;49.378;8.686;2023-03-01T03:15:08;22.75;;;14.32;;
25479;SDS011;13393;49.378;8.686;2023-03-01T03:17:41;23.27;;;15.30;;
25479;SDS011;13393;49.378;8.686;2023-03-01T03:20:25;23.77;;;14.35;;
25479;SDS011;13393;49.378;8.686;2023-03-01T03:22:53;21.05;;;13.63;;
25479;SDS011;13393;49.378;8.686;2023-03-01T03:25:20;21.73;;;14.38;;
25479;SDS011;13393;49.378;8.686;2023-03-01T03:27:47;24.23;;;15.07;;
25479;SDS011;13393;49.378;8.686;2023-03-01T03:30:15;22.63;;;14.65;;
25479;SDS011;13393;49.378;8.686;2023-03-01T03:32:42;23.85;;;14.77;;
25479;SDS011;13393;49.378;8.686;2023-03-01T03:35:17;22.42;;;15.25;;
25479;SDS011;13393;49.378;8.686;2023-03-01T03:37:45;21.05;;;14.50;;
25479;SDS011;13393;49.378;8.686;2023-03-01T03:40:32;23.85;;;14.85;;
25479;SDS011;13393;49.378;8.686;2023-03-01T03:42:59;21.98;;;14.05;;
25479;SDS011;13393;49.378;8.686;2023-03-01T03:45:25;22.67;;;14.68;;
25479;SDS011;13393;49.378;8.686;2023-03-01T03:47:51;23.90;;;15.35;;
25479;SDS011;13393;49.378;8.686;2023-03-01T03:50:18;24.20;;;15.07;;
25479;SDS011;13393;49.378;8.686;2023-03-01T03:52:46;20.65;;;14.73;;
25479;SDS011;13393;49.378;8.686;2023-03-01T03:55:12;21.90;;;14.55;;
25479;SDS011;13393;49.378;8.686;2023-03-01T03:57:39;22.48;;;13.98;;
25479;SDS011;13393;49.378;8.686;2023-03-01T04:03:09;28.13;;;15.68;;
25479;SDS011;13393;49.378;8.686;2023-03-01T04:05:36;23.90;;;16.08;;
25479;SDS011;13393;49.378;8.686;2023-03-01T04:08:04;24.15;;;15.95;;
25479;SDS011;13393;49.378;8.686;2023-03-01T04:10:36;24.30;;;15.80;;
25479;SDS011;13393;49.378;8.686;2023-03-01T04:13:02;24.15;;;15.52;;
25479;SDS011;13393;49.378;8.686;2023-03-01T04:15:29;25.50;;;15.70;;
25479;SDS011;13393;49.378;8.686;2023-03-01T04:17:57;22.95;;;15.10;;
25479;SDS011;13393;49.378;8.686;2023-03-01T04:20:24;28.60;;;15.57;;
25479;SDS011;13393;49.378;8.686;2023-03-01T04:22:51;24.63;;;15.77;;
25479;SDS011;13393;49.378;8.686;2023-03-01T04:25:19;22.85;;;14.50;;
25479;SDS011;13393;49.378;8.686;2023-03-01T04:27:46;22.17;;;15.50;;
25479;SDS011;13393;49.378;8.686;2023-03-01T04:30:12;21.63;;;15.07;;
25479;SDS011;13393;49.378;8.686;2023-03-01T04:32:38;28.55;;;16.58;;
25479;SDS011;13393;49.378;8.686;2023-03-01T04:35:05;21.83;;;15.75;;
25479;SDS011;13393;49.378;8.686;2023-03-01T04:37:31;22.98;;;15.55;;
25479;SDS011;13393;49.378;8.686;2023-03-01T04:39:58;21.15;;;15.70;;
25479;SDS011;13393;49.378;8.686;2023-03-01T04:42:25;21.40;;;14.13;;
25479;SDS011;13393;49.378;8.686;2023-03-01T04:44:51;25.95;;;16.17;;
25479;SDS011;13393;49.378;8.686;2023-03-01T04:47:28;26.02;;;15.40;;
25479;SDS011;13393;49.378;8.686;2023-03-01T04:49:58;23.75;;;15.30;;
25479;SDS011;13393;49.378;8.686;2023-03-01T04:52:24;23.20;;;15.15;;
25479;SDS011;13393;49.378;8.686;2023-03-01T04:54:51;25.27;;;16.38;;
25479;SDS011;13393;49.378;8.686;2023-03-01T04:57:17;25.55;;;16.75;;
25479;SDS011;13393;49.378;8.686;2023-03-01T04:59:45;25.88;;;16.48;;
25479;SDS011;13393;49.378;8.686;2023-03-01T05:02:11;21.75;;;14.43;;
25479;SDS011;13393;49.378;8.686;2023-03-01T05:04:37;24.85;;;16.23;;
25479;SDS011;13393;49.378;8.686;2023-03-01T05:07:03;24.73;;;15.82;;
25479;SDS011;13393;49.378;8.686;2023-03-01T05:09:30;23.83;;;16.13;;
25479;SDS011;13393;49.378;8.686;2023-03-01T05:11:56;24.58;;;16.23;;
25479;SDS011;13393;49.378;8.686;2023-03-01T05:14:22;23.10;;;15.65;;
25479;SDS011;13393;49.378;8.686;2023-03-01T05:16:50;22.08;;;15.13;;
25479;SDS011;13393;49.378;8.686;2023-03-01T05:19:16;26.58;;;16.63;;
25479;SDS011;13393;49.378;8.686;2023-03-01T05:21:47;25.17;;;16.45;;
25479;SDS011;13393;49.378;8.686;2023-03-01T05:24:30;22.05;;;15.43;;
25479;SDS011;13393;49.378;8.686;2023-03-01T05:27:04;23.70;;;15.95;;
25479;SDS011;13393;49.378;8.686;2023-03-01T05:29:35;26.77;;;14.85;;
25479;SDS011;13393;49.378;8.686;2023-03-01T05:32:05;28.08;;;16.25;;
25479;SDS011;13393;49.378;8.686;2023-03-01T05:34:39;28.10;;;17.45;;
25479;SDS011;13393;49.378;8.686;2023-03-01T05:37:06;23.27;;;15.98;;
25479;SDS011;13393;49.378;8.686;2023-03-01T05:39:32;22.98;;;15.93;;
25479;SDS011;13393;49.378;8.686;2023-03-01T05:41:59;27.17;;;17.77;;
25479;SDS011;13393;49.378;8.686;2023-03-01T05:44:26;25.23;;;16.70;;
25479;SDS011;13393;49.378;8.686;2023-03-01T05:46:53;25.48;;;16.83;;
25479;SDS011;13393;49.378;8.686;2023-03-01T05:49:21;26.13;;;16.13;;
25479;SDS011;13393;49.378;8.686;2023-03-01T05:51:49;28.08;;;17.48;;
25479;SDS011;13393;49.378;8.686;2023-03-01T05:54:16;25.30;;;16.10;;
25479;SDS011;13393;49.378;8.686;2023-03-01T05:56:42;24.38;;;15.85;;
25479;SDS011;13393;49.378;8.686;2023-03-01T05:59:20;24.58;;;15.57;;
25479;SDS011;13393;49.378;8.686;2023-03-01T06:01:50;23.83;;;15.88;;
25479;SDS011;13393;49.378;8.686;2023-03-01T06:04:17;28.58;;;16.73;;
25479;SDS011;13393;49.378;8.686;2023-03-01T06:06:44;26.80;;;15.57;;
25479;SDS011;13393;49.378;8.686;2023-03-01T06:09:11;24.13;;;16.27;;
25479;SDS011;13393;49.378;8.686;2023-03-01T06:11:37;24.98;;;16.75;;
25479;SDS011;13393;49.378;8.686;2023-03-01T06:14:12;23.13;;;16.23;;
25479;SDS011;13393;49.378;8.686;2023-03-01T06:17:29;25.70;;;16.88;;
25479;SDS011;13393;49.378;8.686;2023-03-01T06:20:02;25.88;;;17.02;;
25479;SDS011;13393;49.378;8.686;2023-03-01T06:22:28;26.33;;;16.67;;
25479;SDS011;13393;49.378;8.686;2023-03-01T06:24:57;21.40;;;15.23;;
25479;SDS011;13393;49.378;8.686;2023-03-01T06:27:42;27.15;;;16.70;;
25479;SDS011;13393;49.378;8.686;2023-03-01T06:30:12;28.60;;;17.10;;
25479;SDS011;13393;49.378;8.686;2023-03-01T06:32:39;25.77;;;15.88;;
25479;SDS011;13393;49.378;8.686;2023-03-01T06:35:08;24.38;;;16.25;;
25479;SDS011;13393;49.378;8.686;2023-03-01T06:37:35;27.73;;;17.00;;
25479;SDS011;13393;49.378;8.686;2023-03-01T06:40:01;27.98;;;16.42;;
25479;SDS011;13393;49.378;8.686;2023-03-01T06:42:33;27.58;;;16.48;;
25479;SDS011;13393;49.378;8.686;2023-03-01T06:44:59;24.05;;;15.73;;
25479;SDS011;13393;49.378;8.686;2023-03-01T06:47:25;27.33;;;17.08;;
25479;SDS011;13393;49.378;8.686;2023-03-01T06:49:52;24.15;;;15.90;;
25479;SDS011;13393;49.378;8.686;2023-03-01T06:52:26;26.02;;;16.95;;
25479;SDS011;13393;49.378;8.686;2023-03-01T06:57:59;26.63;;;17.13;;
25479;SDS011;13393;49.378;8.686;2023-03-01T07:00:30;28.27;;;16.58;;
25479;SDS011;13393;49.378;8.686;2023-03-01T07:03:13;30.15;;;16.27;;
25479;SDS011;13393;49.378;8.686;2023-03-01T07:05:40;24.20;;;15.35;;
25479;SDS011;13393;49.378;8.686;2023-03-01T07:08:08;25.65;;;16.08;;
25479;SDS011;13393;49.378;8.686;2023-03-01T07:10:34;24.75;;;16.23;;
25479;SDS011;13393;49.378;8.686;2023-03-01T07:13:00;26.65;;;16.60;;
25479;SDS011;13393;49.378;8.686;2023-03-01T07:15:27;25.75;;;15.90;;
25479;SDS011;13393;49.378;8.686;2023-03-01T07:17:53;28.58;;;16.48;;
25479;SDS011;13393;49.378;8.686;2023-03-01T07:20:22;23.02;;;15.02;;
25479;SDS011;13393;49.378;8.686;2023-03-01T07:22:50;28.75;;;17.23;;
25479;SDS011;13393;49.378;8.686;2023-03-01T07:25:18;27.08;;;16.13;;
25479;SDS011;13393;49.378;8.686;2023-03-01T07:27:48;29.42;;;17.75;;
25479;SDS011;13393;49.378;8.686;2023-03-01T07:30:15;30.90;;;16.85;;
25479;SDS011;13393;49.378;8.686;2023-03-01T07:32:41;25.65;;;15.38;;
25479;SDS011;13393;49.378;8.686;2023-03-01T07:35:08;25.27;;;16.10;;
25479;SDS011;13393;49.378;8.686;2023-03-01T07:37:34;22.33;;;14.80;;
25479;SDS011;13393;49.378;8.686;2023-03-01T07:40:00;27.13;;;16.63;;
25479;SDS011;13393;49.378;8.686;2023-03-01T07:42:28;26.98;;;16.33;;
25479;SDS011;13393;49.378;8.686;2023-03-01T07:44:54;27.05;;;16.42;;
25479;SDS011;13393;49.378;8.686;2023-03-01T07:47:21;27.40;;;15.75;;
25479;SDS011;13393;49.378;8.686;2023-03-01T07:49:47;24.05;;;15.55;;
25479;SDS011;13393;49.378;8.686;2023-03-01T07:52:14;25.55;;;16.50;;
25479;SDS011;13393;49.378;8.686;2023-03-01T07:54:42;23.13;;;14.93;;
25479;SDS011;13393;49.378;8.686;2023-03-01T07:57:09;21.85;;;15.02;;
25479;SDS011;13393;49.378;8.686;2023-03-01T07:59:36;24.17;;;15.07;;
25479;SDS011;13393;49.378;8.686;2023-03-01T08:02:03;25.73;;;16.00;;
25479;SDS011;13393;49.378;8.686;2023-03-01T08:04:29;24.77;;;15.80;;
25479;SDS011;13393;49.378;8.686;2023-03-01T08:06:55;22.83;;;15.65;;
25479;SDS011;13393;49.378;8.686;2023-03-01T08:09:22;24.98;;;15.13;;
25479;SDS011;13393;49.378;8.686;2023-03-01T08:11:48;23.25;;;15.38;;
25479;SDS011;13393;49.378;8.686;2023-03-01T08:14:15;20.92;;;15.13;;
25479;SDS011;13393;49.378;8.686;2023-03-01T08:16:42;22.55;;;14.73;;
25479;SDS011;13393;49.378;8.686;2023-03-01T08:19:10;24.50;;;15.13;;
25479;SDS011;13393;49.378;8.686;2023-03-01T08:21:37;23.20;;;15.63;;
25479;SDS011;13393;49.378;8.686;2023-03-01T08:24:04;23.13;;;15.30;;
25479;SDS011;13393;49.378;8.686;2023-03-01T08:26:31;23.63;;;15.50;;
25479;SDS011;13393;49.378;8.686;2023-03-01T08:28:59;25.08;;;16.25;;
25479;SDS011;13393;49.378;8.686;2023-03-01T08:31:29;26.48;;;15.43;;
25479;SDS011;13393;49.378;8.686;2023-03-01T08:33:59;24.77;;;16.33;;
25479;SDS011;13393;49.378;8.686;2023-03-01T08:36:40;22.88;;;14.75;;
25479;SDS011;13393;49.378;8.686;2023-03-01T08:39:28;26.17;;;16.30;;
25479;SDS011;13393;49.378;8.686;2023-03-01T08:41:54;25.42;;;16.55;;
25479;SDS011;13393;49.378;8.686;2023-03-01T08:44:20;25.92;;;16.55;;
25479;SDS011;13393;49.378;8.686;2023-03-01T08:46:47;25.27;;;16.55;;
25479;SDS011;13393;49.378;8.686;2023-03-01T08:49:19;24.48;;;16.48;;
25479;SDS011;13393;49.378;8.686;2023-03-01T08:52:08;28.70;;;16.73;;
25479;SDS011;13393;49.378;8.686;2023-03-01T08:54:34;24.67;;;16.60;;
25479;SDS011;13393;49.378;8.686;2023-03-01T08:57:04;24.15;;;16.65;;
25479;SDS011;13393;49.378;8.686;2023-03-01T08:59:40;25.88;;;17.50;;
25479;SDS011;13393;49.378;8.686;2023-03-01T09:02:12;28.10;;;18.08;;
25479;SDS011;13393;49.378;8.686;2023-03-01T09:04:40;23.60;;;15.50;;
25479;SDS011;13393;49.378;8.686;2023-03-01T09:07:06;26.48;;;18.00;;
25479;SDS011;13393;49.378;8.686;2023-03-01T09:09:33;24.40;;;16.17;;
25479;SDS011;13393;49.378;8.686;2023-03-01T09:11:59;26.17;;;17.50;;
25479;SDS011;13393;49.378;8.686;2023-03-01T09:14:25;23.88;;;16.75;;
25479;SDS011;13393;49.378;8.686;2023-03-01T09:16:52;24.65;;;16.92;;
25479;SDS011;13393;49.378;8.686;2023-03-01T09:19:18;26.95;;;17.23;;
25479;SDS011;13393;49.378;8.686;2023-03-01T09:21:46;22.77;;;16.45;;
25479;SDS011;13393;49.378;8.686;2023-03-01T09:24:18;27.15;;;17.13;;
25479;SDS011;13393;49.378;8.686;2023-03-01T09:26:44;22.95;;;16.58;;
25479;SDS011;13393;49.378;8.686;2023-03-01T09:29:11;27.90;;;17.45;;
25479;SDS011;13393;49.378;8.686;2023-03-01T09:31:39;26.92;;;17.50;;
25479;SDS011;13393;49.378;8.686;2023-03-01T09:34:06;27.25;;;18.08;;
25479;SDS011;13393;49.378;8.686;2023-03-01T09:36:33;24.42;;;16.15;;
25479;SDS011;13393;49.378;8.686;2023-03-01T09:39:01;25.02;;;16.67;;
25479;SDS011;13393;49.378;8.686;2023-03-01T09:44:10;26.17;;;16.25;;
25479;SDS011;13393;49.378;8.686;2023-03-01T09:46:38;22.10;;;16.38;;
25479;SDS011;13393;49.378;8.686;2023-03-01T09:49:09;25.50;;;16.98;;
25479;SDS011;13393;49.378;8.686;2023-03-01T09:51:36;24.45;;;17.00;;
25479;SDS011;13393;49.378;8.686;2023-03-01T09:54:05;26.88;;;17.73;;
25479;SDS011;13393;49.378;8.686;2023-03-01T09:56:33;25.60;;;17.55;;
25479;SDS011;13393;49.378;8.686;2023-03-01T09:59:02;28.85;;;17.75;;
25479;SDS011;13393;49.378;8.686;2023-03-01T10:01:38;23.65;;;17.33;;
25479;SDS011;13393;49.378;8.686;2023-03-01T10:04:09;26.15;;;17.70;;
25479;SDS011;13393;49.378;8.686;2023-03-01T10:06:38;25.83;;;17.17;;
25479;SDS011;13393;49.378;8.686;2023-03-01T10:09:07;24.55;;;16.95;;
25479;SDS011;13393;49.378;8.686;2023-03-01T10:11:36;27.63;;;17.70;;
25479;SDS011;13393;49.378;8.686;2023-03-01T10:14:04;24.25;;;16.70;;
25479;SDS011;13393;49.378;8.686;2023-03-01T10:16:34;21.75;;;15.85;;
25479;SDS011;13393;49.378;8.686;2023-03-01T10:19:05;25.88;;;17.08;;
25479;SDS011;13393;49.378;8.686;2023-03-01T10:21:32;24.30;;;16.17;;
25479;SDS011;13393;49.378;8.686;2023-03-01T10:24:08;22.25;;;16.33;;
25479;SDS011;13393;49.378;8.686;2023-03-01T10:26:40;21.73;;;16.30;;
25479;SDS011;13393;49.378;8.686;2023-03-01T10:29:10;24.45;;;16.08;;
25479;SDS011;13393;49.378;8.686;2023-03-01T10:31:38;23.88;;;16.58;;
25479;SDS011;13393;49.378;8.686;2023-03-01T10:34:08;22.88;;;15.23;;
25479;SDS011;13393;49.378;8.686;2023-03-01T10:36:35;23.20;;;16.20;;
25479;SDS011;13393;49.378;8.686;2023-03-01T10:39:06;23.88;;;16.60;;
25479;SDS011;13393;49.378;8.686;2023-03-01T10:41:37;22.73;;;15.63;;
25479;SDS011;13393;49.378;8.686;2023-03-01T10:44:12;25.17;;;16.70;;
25479;SDS011;13393;49.378;8.686;2023-03-01T10:46:58;21.85;;;15.85;;
25479;SDS011;13393;49.378;8.686;2023-03-01T10:49:25;22.77;;;15.15;;
25479;SDS011;13393;49.378;8.686;2023-03-01T10:54:37;20.20;;;15.20;;
25479;SDS011;13393;49.378;8.686;2023-03-01T10:57:05;20.30;;;14.98;;
25479;SDS011;13393;49.378;8.686;2023-03-01T10:59:34;21.38;;;15.20;;
25479;SDS011;13393;49.378;8.686;2023-03-01T11:02:01;20.50;;;14.32;;
25479;SDS011;13393;49.378;8.686;2023-03-01T11:04:28;23.02;;;14.77;;
25479;SDS011;13393;49.378;8.686;2023-03-01T11:06:57;19.60;;;14.32;;
25479;SDS011;13393;49.378;8.686;2023-03-01T11:09:24;23.88;;;13.95;;
25479;SDS011;13393;49.378;8.686;2023-03-01T11:11:52;19.13;;;14.13;;
25479;SDS011;13393;49.378;8.686;2023-03-01T11:14:20;22.05;;;14.65;;
25479;SDS011;13393;49.378;8.686;2023-03-01T11:16:48;19.25;;;14.13;;
25479;SDS011;13393;49.378;8.686;2023-03-01T11:19:20;18.58;;;13.30;;
25479;SDS011;13393;49.378;8.686;2023-03-01T11:21:52;19.17;;;13.90;;
25479;SDS011;13393;49.378;8.686;2023-03-01T11:24:19;20.58;;;13.85;;
25479;SDS011;13393;49.378;8.686;2023-03-01T11:26:47;17.05;;;12.60;;
25479;SDS011;13393;49.378;8.686;2023-03-01T11:29:17;23.65;;;14.63;;
25479;SDS011;13393;49.378;8.686;2023-03-01T11:31:48;21.30;;;14.55;;
25479;SDS011;13393;49.378;8.686;2023-03-01T11:34:17;18.35;;;13.13;;
25479;SDS011;13393;49.378;8.686;2023-03-01T11:36:46;20.25;;;14.82;;
25479;SDS011;13393;49.378;8.686;2023-03-01T11:39:17;18.67;;;12.93;;
25479;SDS011;13393;49.378;8.686;2023-03-01T11:41:44;19.42;;;14.27;;
25479;SDS011;13393;49.378;8.686;2023-03-01T11:44:16;20.98;;;14.32;;
25479;SDS011;13393;49.378;8.686;2023-03-01T11:46:53;20.80;;;13.10;;
25479;SDS011;13393;49.378;8.686;2023-03-01T11:49:31;19.88;;;14.02;;
25479;SDS011;13393;49.378;8.686;2023-03-01T11:52:01;18.50;;;13.52;;
25479;SDS011;13393;49.378;8.686;2023-03-01T11:54:32;17.33;;;12.73;;
25479;SDS011;13393;49.378;8.686;2023-03-01T11:57:03;18.05;;;13.13;;
25479;SDS011;13393;49.378;8.686;2023-03-01T12:02:20;19.88;;;13.77;;
25479;SDS011;13393;49.378;8.686;2023-03-01T12:04:54;18.92;;;12.38;;
25479;SDS011;13393;49.378;8.686;2023-03-01T12:07:25;19.00;;;12.90;;
25479;SDS011;13393;49.378;8.686;2023-03-01T12:09:59;15.93;;;13.05;;
25479;SDS011;13393;49.378;8.686;2023-03-01T12:12:32;16.55;;;12.05;;
25479;SDS011;13393;49.378;8.686;2023-03-01T12:20:40;15.73;;;12.38;;
25479;SDS011;13393;49.378;8.686;2023-03-01T12:23:20;16.83;;;13.13;;
25479;SDS011;13393;49.378;8.686;2023-03-01T12:25:52;17.27;;;12.88;;
25479;SDS011;13393;49.378;8.686;2023-03-01T12:28:33;17.45;;;12.23;;
25479;SDS011;13393;49.378;8.686;2023-03-01T12:31:11;16.08;;;12.55;;
25479;SDS011;13393;49.378;8.686;2023-03-01T12:33:45;15.88;;;12.10;;
25479;SDS011;13393;49.378;8.686;2023-03-01T12:36:24;16.37;;;13.23;;
25479;SDS011;13393;49.378;8.686;2023-03-01T12:38:57;16.15;;;13.02;;
25479;SDS011;13393;49.378;8.686;2023-03-01T12:41:41;16.20;;;12.50;;
25479;SDS011;13393;49.378;8.686;2023-03-01T12:44:15;15.07;;;11.68;;
25479;SDS011;13393;49.378;8.686;2023-03-01T12:46:51;14.82;;;11.85;;
25479;SDS011;13393;49.378;8.686;2023-03-01T12:49:20;16.08;;;12.15;;
25479;SDS011;13393;49.378;8.686;2023-03-01T12:51:50;14.63;;;11.65;;
25479;SDS011;13393;49.378;8.686;2023-03-01T12:54:19;16.13;;;12.35;;
25479;SDS011;13393;49.378;8.686;2023-03-01T12:56:48;16.08;;;12.27;;
25479;SDS011;13393;49.378;8.686;2023-03-01T12:59:17;14.45;;;11.55;;
25479;SDS011;13393;49.378;8.686;2023-03-01T13:01:48;18.20;;;12.25;;
25479;SDS011;13393;49.378;8.686;2023-03-01T13:04:20;12.68;;;10.60;;
25479;SDS011;13393;49.378;8.686;2023-03-01T13:06:54;15.48;;;11.27;;
25479;SDS011;13393;49.378;8.686;2023-03-01T13:09:24;13.93;;;11.13;;
25479;SDS011;13393;49.378;8.686;2023-03-01T13:11:55;17.65;;;12.65;;
25479;SDS011;13393;49.378;8.686;2023-03-01T13:14:37;16.55;;;12.00;;
25479;SDS011;13393;49.378;8.686;2023-03-01T13:19:57;14.18;;;11.30;;
25479;SDS011;13393;49.378;8.686;2023-03-01T13:22:30;15.65;;;11.82;;
25479;SDS011;13393;49.378;8.686;2023-03-01T13:25:01;16.02;;;11.93;;
25479;SDS011;13393;49.378;8.686;2023-03-01T13:27:27;14.00;;;11.23;;
25479;SDS011;13393;49.378;8.686;2023-03-01T13:29:55;16.55;;;11.65;;
25479;SDS011;13393;49.378;8.686;2023-03-01T13:32:24;16.58;;;11.60;;
25479;SDS011;13393;49.378;8.686;2023-03-01T13:34:56;14.23;;;11.40;;
25479;SDS011;13393;49.378;8.686;2023-03-01T13:37:24;16.58;;;10.88;;
25479;SDS011;13393;49.378;8.686;2023-03-01T13:39:55;14.32;;;11.27;;
25479;SDS011;13393;49.378;8.686;2023-03-01T13:42:34;13.45;;;10.90;;
25479;SDS011;13393;49.378;8.686;2023-03-01T13:45:02;14.60;;;11.50;;
25479;SDS011;13393;49.378;8.686;2023-03-01T13:47:29;13.77;;;11.18;;
25479;SDS011;13393;49.378;8.686;2023-03-01T13:49:57;13.95;;;10.63;;
25479;SDS011;13393;49.378;8.686;2023-03-01T13:52:30;15.73;;;11.57;;
25479;SDS011;13393;49.378;8.686;2023-03-01T13:54:59;14.77;;;11.30;;
25479;SDS011;13393;49.378;8.686;2023-03-01T13:57:28;14.18;;;10.60;;
25479;SDS011;13393;49.378;8.686;2023-03-01T13:59:56;13.00;;;10.60;;
25479;SDS011;13393;49.378;8.686;2023-03-01T14:02:22;14.80;;;11.20;;
25479;SDS011;13393;49.378;8.686;2023-03-01T14:04:56;14.32;;;11.00;;
25479;SDS011;13393;49.378;8.686;2023-03-01T14:07:23;14.68;;;11.02;;
25479;SDS011;13393;49.378;8.686;2023-03-01T14:09:51;11.82;;;10.18;;
25479;SDS011;13393;49.378;8.686;2023-03-01T14:12:36;13.65;;;11.30;;
25479;SDS011;13393;49.378;8.686;2023-03-01T14:15:06;13.70;;;10.80;;
25479;SDS011;13393;49.378;8.686;2023-03-01T14:17:39;16.00;;;11.50;;
25479;SDS011;13393;49.378;8.686;2023-03-01T14:20:11;15.60;;;10.60;;
25479;SDS011;13393;49.378;8.686;2023-03-01T14:22:40;12.57;;;10.13;;
25479;SDS011;13393;49.378;8.686;2023-03-01T14:25:16;11.38;;;9.90;;
25479;SDS011;13393;49.378;8.686;2023-03-01T14:27:44;11.52;;;9.70;;
25479;SDS011;13393;49.378;8.686;2023-03-01T14:30:17;16.20;;;10.60;;
25479;SDS011;13393;49.378;8.686;2023-03-01T14:32:51;10.45;;;9.32;;
25479;SDS011;13393;49.378;8.686;2023-03-01T14:35:19;12.40;;;10.70;;
25479;SDS011;13393;49.378;8.686;2023-03-01T14:37:46;11.13;;;9.73;;
25479;SDS011;13393;49.378;8.686;2023-03-01T14:40:20;10.93;;;9.82;;
25479;SDS011;13393;49.378;8.686;2023-03-01T14:42:48;12.07;;;10.00;;
25479;SDS011;13393;49.378;8.686;2023-03-01T14:45:14;11.13;;;9.50;;
25479;SDS011;13393;49.378;8.686;2023-03-01T14:47:40;11.85;;;9.48;;
25479;SDS011;13393;49.378;8.686;2023-03-01T14:50:08;10.23;;;9.23;;
25479;SDS011;13393;49.378;8.686;2023-03-01T14:52:35;13.18;;;9.45;;
25479;SDS011;13393;49.378;8.686;2023-03-01T14:55:03;10.48;;;9.38;;
25479;SDS011;13393;49.378;8.686;2023-03-01T14:57:30;11.50;;;9.32;;